Hovedside
METAR-TAF:

METAR-TAF

Lufthavner :

Antonio B. Won Pat internasjonale lufthavn

Hagåtña, Guam, USA

breddegrad: 13-29N, lengdegrad: 144-48E, høyde over havet: 91 m

Gjeldene værobservasjon

Denne rapporten ble laget for 24 minutter siden, klokken 20:54 UTC
Vind 6 kt fra Øst-nordøst
Temperatur 26°C
Luftfuktighet 89%
Trykk 1011 hPa
Sikt: 16.1 km
Skyfri himmel

METAR: PGUM 132054Z 06006KT 10SM CLR 26/24 A2986 RMK AO2 SLP104 T02560244 53013

Tid: 07:18 (21:18 UTC)

Varsel

Denne rapporten ble laget for 3 timer og 48 minutter siden, klokken 17:30 UTC
Varsel gyldig fra 13. klokken 18 UTC til 14. klokken 24 UTC
Vind 5 kt fra Øst-nordøst
Sikt: 10 km
Få skyer i en høyde av 2200 ft
Fra 13. klokken 2300 UTC
Vind 15 kt fra Øst-nordøst
Sikt: 10 km
Spredte skyer i en høyde av 2400 ft

TAF: PGUM 131730Z 1318/1424 06005KT P6SM FEW022 FM132300 07015KT P6SM SCT024

Værobservasjoner og værvarsel for over 4000 flyplasser (METAR- og TAF-rapporter).

Tilgjengelige stasjoner er representert av de røde og gule prikkene på kartet.

Hold musepekeren over prikken for å se navnet på stasjonen.

Klikk så for å se værobservasjoner og -varsler.

For å forandre kartet kan du klikke på den grønne knappen med svart kryss for å zoome inn, på den grønne knappen med strek for å zoome ut, eller på de grønne pilene for å se tilstøtende kart.


METAR-TAF: